sensor_id;sensor_type;location;lat;lon;timestamp;P1;durP1;ratioP1;P2;durP2;ratioP2
15936;SDS011;9163;48.818;8.976;2023-08-06T00:00:12;6.30;;;4.60;;
15936;SDS011;9163;48.818;8.976;2023-08-06T00:02:39;5.20;;;4.07;;
15936;SDS011;9163;48.818;8.976;2023-08-06T00:05:07;5.73;;;4.40;;
15936;SDS011;9163;48.818;8.976;2023-08-06T00:07:34;5.20;;;3.90;;
15936;SDS011;9163;48.818;8.976;2023-08-06T00:10:01;4.43;;;3.83;;
15936;SDS011;9163;48.818;8.976;2023-08-06T00:12:30;5.17;;;3.60;;
15936;SDS011;9163;48.818;8.976;2023-08-06T00:14:57;6.07;;;3.97;;
15936;SDS011;9163;48.818;8.976;2023-08-06T00:17:25;4.10;;;3.70;;
15936;SDS011;9163;48.818;8.976;2023-08-06T00:19:52;4.57;;;3.20;;
15936;SDS011;9163;48.818;8.976;2023-08-06T00:22:19;5.07;;;3.50;;
15936;SDS011;9163;48.818;8.976;2023-08-06T00:24:46;3.87;;;3.47;;
15936;SDS011;9163;48.818;8.976;2023-08-06T00:27:14;4.00;;;3.30;;
15936;SDS011;9163;48.818;8.976;2023-08-06T00:29:42;4.83;;;3.80;;
15936;SDS011;9163;48.818;8.976;2023-08-06T00:32:09;4.90;;;3.77;;
15936;SDS011;9163;48.818;8.976;2023-08-06T00:34:36;7.13;;;4.10;;
15936;SDS011;9163;48.818;8.976;2023-08-06T00:37:04;6.53;;;4.27;;
15936;SDS011;9163;48.818;8.976;2023-08-06T00:39:31;4.93;;;4.03;;
15936;SDS011;9163;48.818;8.976;2023-08-06T00:41:58;5.17;;;4.57;;
15936;SDS011;9163;48.818;8.976;2023-08-06T00:44:26;5.03;;;3.93;;
15936;SDS011;9163;48.818;8.976;2023-08-06T00:46:54;5.97;;;3.77;;
15936;SDS011;9163;48.818;8.976;2023-08-06T00:49:22;5.37;;;3.90;;
15936;SDS011;9163;48.818;8.976;2023-08-06T00:51:49;5.17;;;4.10;;
15936;SDS011;9163;48.818;8.976;2023-08-06T00:54:16;6.90;;;3.97;;
15936;SDS011;9163;48.818;8.976;2023-08-06T00:56:44;4.03;;;3.63;;
15936;SDS011;9163;48.818;8.976;2023-08-06T00:59:13;4.73;;;4.13;;
15936;SDS011;9163;48.818;8.976;2023-08-06T01:01:41;4.80;;;3.73;;
15936;SDS011;9163;48.818;8.976;2023-08-06T01:04:09;5.13;;;3.60;;
15936;SDS011;9163;48.818;8.976;2023-08-06T01:06:39;5.90;;;3.90;;
15936;SDS011;9163;48.818;8.976;2023-08-06T01:09:15;4.40;;;4.00;;
15936;SDS011;9163;48.818;8.976;2023-08-06T01:11:54;5.50;;;3.50;;
15936;SDS011;9163;48.818;8.976;2023-08-06T01:14:28;4.97;;;3.33;;
15936;SDS011;9163;48.818;8.976;2023-08-06T01:17:00;4.83;;;3.60;;
15936;SDS011;9163;48.818;8.976;2023-08-06T01:19:30;4.97;;;3.50;;
15936;SDS011;9163;48.818;8.976;2023-08-06T01:21:59;7.83;;;3.90;;
15936;SDS011;9163;48.818;8.976;2023-08-06T01:24:26;4.33;;;3.67;;
15936;SDS011;9163;48.818;8.976;2023-08-06T01:26:55;4.00;;;3.30;;
15936;SDS011;9163;48.818;8.976;2023-08-06T01:29:31;4.10;;;3.47;;
15936;SDS011;9163;48.818;8.976;2023-08-06T01:32:03;4.10;;;3.33;;
15936;SDS011;9163;48.818;8.976;2023-08-06T01:34:32;4.33;;;3.80;;
15936;SDS011;9163;48.818;8.976;2023-08-06T01:37:02;5.93;;;4.20;;
15936;SDS011;9163;48.818;8.976;2023-08-06T01:39:31;7.17;;;3.87;;
15936;SDS011;9163;48.818;8.976;2023-08-06T01:42:00;6.47;;;4.50;;
15936;SDS011;9163;48.818;8.976;2023-08-06T01:44:27;6.23;;;4.20;;
15936;SDS011;9163;48.818;8.976;2023-08-06T01:46:54;4.60;;;4.20;;
15936;SDS011;9163;48.818;8.976;2023-08-06T01:49:22;4.37;;;3.97;;
15936;SDS011;9163;48.818;8.976;2023-08-06T01:51:49;7.10;;;4.43;;
15936;SDS011;9163;48.818;8.976;2023-08-06T01:54:18;7.10;;;4.73;;
15936;SDS011;9163;48.818;8.976;2023-08-06T01:56:45;4.33;;;3.87;;
15936;SDS011;9163;48.818;8.976;2023-08-06T01:59:12;5.50;;;4.30;;
15936;SDS011;9163;48.818;8.976;2023-08-06T02:01:39;6.63;;;3.83;;
15936;SDS011;9163;48.818;8.976;2023-08-06T02:04:06;5.93;;;3.63;;
15936;SDS011;9163;48.818;8.976;2023-08-06T02:06:34;4.50;;;3.90;;
15936;SDS011;9163;48.818;8.976;2023-08-06T02:09:01;6.00;;;3.57;;
15936;SDS011;9163;48.818;8.976;2023-08-06T02:11:29;4.17;;;3.00;;
15936;SDS011;9163;48.818;8.976;2023-08-06T02:13:57;4.87;;;3.07;;
15936;SDS011;9163;48.818;8.976;2023-08-06T02:16:24;4.77;;;2.87;;
15936;SDS011;9163;48.818;8.976;2023-08-06T02:18:51;4.10;;;2.60;;
15936;SDS011;9163;48.818;8.976;2023-08-06T02:21:18;5.63;;;2.70;;
15936;SDS011;9163;48.818;8.976;2023-08-06T02:23:45;6.30;;;3.10;;
15936;SDS011;9163;48.818;8.976;2023-08-06T02:26:13;4.53;;;3.10;;
15936;SDS011;9163;48.818;8.976;2023-08-06T02:28:41;3.40;;;2.60;;
15936;SDS011;9163;48.818;8.976;2023-08-06T02:31:08;4.87;;;2.83;;
15936;SDS011;9163;48.818;8.976;2023-08-06T02:33:36;4.70;;;2.73;;
15936;SDS011;9163;48.818;8.976;2023-08-06T02:36:03;5.27;;;3.10;;
15936;SDS011;9163;48.818;8.976;2023-08-06T02:38:31;5.30;;;2.83;;
15936;SDS011;9163;48.818;8.976;2023-08-06T02:40:59;4.73;;;3.00;;
15936;SDS011;9163;48.818;8.976;2023-08-06T02:43:29;4.37;;;3.20;;
15936;SDS011;9163;48.818;8.976;2023-08-06T02:45:58;7.30;;;2.97;;
15936;SDS011;9163;48.818;8.976;2023-08-06T02:48:26;3.90;;;2.90;;
15936;SDS011;9163;48.818;8.976;2023-08-06T02:50:56;4.40;;;2.80;;
15936;SDS011;9163;48.818;8.976;2023-08-06T02:53:24;4.87;;;2.90;;
15936;SDS011;9163;48.818;8.976;2023-08-06T02:55:51;4.43;;;2.83;;
15936;SDS011;9163;48.818;8.976;2023-08-06T02:58:18;5.70;;;2.90;;
15936;SDS011;9163;48.818;8.976;2023-08-06T03:00:59;3.90;;;2.80;;
15936;SDS011;9163;48.818;8.976;2023-08-06T03:03:28;4.87;;;3.03;;
15936;SDS011;9163;48.818;8.976;2023-08-06T03:05:55;5.63;;;3.00;;
15936;SDS011;9163;48.818;8.976;2023-08-06T03:08:23;5.27;;;3.00;;
15936;SDS011;9163;48.818;8.976;2023-08-06T03:10:50;6.47;;;2.90;;
15936;SDS011;9163;48.818;8.976;2023-08-06T03:13:18;5.40;;;2.80;;
15936;SDS011;9163;48.818;8.976;2023-08-06T03:15:51;5.13;;;3.10;;
15936;SDS011;9163;48.818;8.976;2023-08-06T03:18:20;5.80;;;3.03;;
15936;SDS011;9163;48.818;8.976;2023-08-06T03:20:47;4.00;;;2.73;;
15936;SDS011;9163;48.818;8.976;2023-08-06T03:23:15;4.13;;;2.83;;
15936;SDS011;9163;48.818;8.976;2023-08-06T03:25:42;5.07;;;2.50;;
15936;SDS011;9163;48.818;8.976;2023-08-06T03:28:09;4.30;;;2.90;;
15936;SDS011;9163;48.818;8.976;2023-08-06T03:30:37;3.13;;;2.50;;
15936;SDS011;9163;48.818;8.976;2023-08-06T03:33:04;4.50;;;2.60;;
15936;SDS011;9163;48.818;8.976;2023-08-06T03:35:33;6.17;;;2.47;;
15936;SDS011;9163;48.818;8.976;2023-08-06T03:38:00;5.00;;;2.70;;
15936;SDS011;9163;48.818;8.976;2023-08-06T03:40:27;5.07;;;2.70;;
15936;SDS011;9163;48.818;8.976;2023-08-06T03:42:54;5.37;;;2.57;;
15936;SDS011;9163;48.818;8.976;2023-08-06T03:45:22;4.50;;;2.40;;
15936;SDS011;9163;48.818;8.976;2023-08-06T03:47:49;6.27;;;2.80;;
15936;SDS011;9163;48.818;8.976;2023-08-06T03:50:17;4.93;;;2.50;;
15936;SDS011;9163;48.818;8.976;2023-08-06T03:52:45;5.57;;;2.67;;
15936;SDS011;9163;48.818;8.976;2023-08-06T03:55:12;5.27;;;2.20;;
15936;SDS011;9163;48.818;8.976;2023-08-06T03:57:40;2.47;;;1.97;;
15936;SDS011;9163;48.818;8.976;2023-08-06T04:00:07;5.67;;;2.33;;
15936;SDS011;9163;48.818;8.976;2023-08-06T04:02:35;4.53;;;2.37;;
15936;SDS011;9163;48.818;8.976;2023-08-06T04:05:02;5.80;;;2.53;;
15936;SDS011;9163;48.818;8.976;2023-08-06T04:07:30;3.17;;;2.20;;
15936;SDS011;9163;48.818;8.976;2023-08-06T04:09:59;4.83;;;2.27;;
15936;SDS011;9163;48.818;8.976;2023-08-06T04:12:28;3.50;;;2.47;;
15936;SDS011;9163;48.818;8.976;2023-08-06T04:14:57;3.37;;;2.20;;
15936;SDS011;9163;48.818;8.976;2023-08-06T04:17:25;6.40;;;2.47;;
15936;SDS011;9163;48.818;8.976;2023-08-06T04:19:52;3.73;;;2.20;;
15936;SDS011;9163;48.818;8.976;2023-08-06T04:22:23;4.33;;;2.23;;
15936;SDS011;9163;48.818;8.976;2023-08-06T04:24:51;3.53;;;2.03;;
15936;SDS011;9163;48.818;8.976;2023-08-06T04:27:20;2.80;;;2.00;;
15936;SDS011;9163;48.818;8.976;2023-08-06T04:29:47;4.07;;;2.40;;
15936;SDS011;9163;48.818;8.976;2023-08-06T04:32:14;3.13;;;2.30;;
15936;SDS011;9163;48.818;8.976;2023-08-06T04:34:41;3.50;;;2.10;;
15936;SDS011;9163;48.818;8.976;2023-08-06T04:37:08;3.27;;;1.90;;
15936;SDS011;9163;48.818;8.976;2023-08-06T04:39:36;4.50;;;1.90;;
15936;SDS011;9163;48.818;8.976;2023-08-06T04:42:03;5.53;;;2.47;;
15936;SDS011;9163;48.818;8.976;2023-08-06T04:44:32;3.90;;;1.90;;
15936;SDS011;9163;48.818;8.976;2023-08-06T04:47:00;5.07;;;2.00;;
15936;SDS011;9163;48.818;8.976;2023-08-06T04:49:27;2.30;;;1.60;;
15936;SDS011;9163;48.818;8.976;2023-08-06T04:51:54;2.37;;;1.60;;
15936;SDS011;9163;48.818;8.976;2023-08-06T04:54:21;3.83;;;1.60;;
15936;SDS011;9163;48.818;8.976;2023-08-06T04:56:48;3.07;;;1.60;;
15936;SDS011;9163;48.818;8.976;2023-08-06T04:59:16;1.50;;;1.10;;
15936;SDS011;9163;48.818;8.976;2023-08-06T05:01:44;2.40;;;1.27;;
15936;SDS011;9163;48.818;8.976;2023-08-06T05:04:11;2.30;;;1.00;;
15936;SDS011;9163;48.818;8.976;2023-08-06T05:06:39;1.00;;;0.87;;
15936;SDS011;9163;48.818;8.976;2023-08-06T05:09:06;2.33;;;1.00;;
15936;SDS011;9163;48.818;8.976;2023-08-06T05:11:34;1.70;;;0.80;;
15936;SDS011;9163;48.818;8.976;2023-08-06T05:14:01;0.90;;;0.70;;
15936;SDS011;9163;48.818;8.976;2023-08-06T05:16:28;1.33;;;0.70;;
15936;SDS011;9163;48.818;8.976;2023-08-06T05:18:56;1.00;;;0.80;;
15936;SDS011;9163;48.818;8.976;2023-08-06T05:21:24;1.77;;;0.80;;
15936;SDS011;9163;48.818;8.976;2023-08-06T05:23:51;2.70;;;0.90;;
15936;SDS011;9163;48.818;8.976;2023-08-06T05:26:18;1.00;;;0.90;;
15936;SDS011;9163;48.818;8.976;2023-08-06T05:28:45;2.23;;;1.40;;
15936;SDS011;9163;48.818;8.976;2023-08-06T05:31:13;1.63;;;1.30;;
15936;SDS011;9163;48.818;8.976;2023-08-06T05:33:40;2.90;;;1.10;;
15936;SDS011;9163;48.818;8.976;2023-08-06T05:36:09;2.07;;;1.33;;
15936;SDS011;9163;48.818;8.976;2023-08-06T05:38:36;3.27;;;1.10;;
15936;SDS011;9163;48.818;8.976;2023-08-06T05:41:03;1.73;;;1.10;;
15936;SDS011;9163;48.818;8.976;2023-08-06T05:43:30;1.63;;;1.00;;
15936;SDS011;9163;48.818;8.976;2023-08-06T05:45:57;2.03;;;1.20;;
15936;SDS011;9163;48.818;8.976;2023-08-06T05:48:25;1.30;;;0.90;;
15936;SDS011;9163;48.818;8.976;2023-08-06T05:50:53;1.93;;;0.90;;
15936;SDS011;9163;48.818;8.976;2023-08-06T05:53:22;2.70;;;1.07;;
15936;SDS011;9163;48.818;8.976;2023-08-06T05:55:49;1.50;;;0.70;;
15936;SDS011;9163;48.818;8.976;2023-08-06T05:58:17;2.30;;;0.80;;
15936;SDS011;9163;48.818;8.976;2023-08-06T06:00:45;0.90;;;0.70;;
15936;SDS011;9163;48.818;8.976;2023-08-06T06:03:12;2.67;;;1.00;;
15936;SDS011;9163;48.818;8.976;2023-08-06T06:05:40;1.57;;;0.60;;
15936;SDS011;9163;48.818;8.976;2023-08-06T06:08:07;2.07;;;1.00;;
15936;SDS011;9163;48.818;8.976;2023-08-06T06:10:36;2.53;;;0.93;;
15936;SDS011;9163;48.818;8.976;2023-08-06T06:13:03;0.83;;;0.67;;
15936;SDS011;9163;48.818;8.976;2023-08-06T06:15:30;2.23;;;0.80;;
15936;SDS011;9163;48.818;8.976;2023-08-06T06:17:57;2.57;;;0.70;;
15936;SDS011;9163;48.818;8.976;2023-08-06T06:20:25;1.53;;;0.80;;
15936;SDS011;9163;48.818;8.976;2023-08-06T06:22:52;2.73;;;0.67;;
15936;SDS011;9163;48.818;8.976;2023-08-06T06:25:19;2.90;;;0.80;;
15936;SDS011;9163;48.818;8.976;2023-08-06T06:27:48;1.60;;;0.73;;
15936;SDS011;9163;48.818;8.976;2023-08-06T06:30:15;1.17;;;0.60;;
15936;SDS011;9163;48.818;8.976;2023-08-06T06:32:42;2.03;;;0.80;;
15936;SDS011;9163;48.818;8.976;2023-08-06T06:35:09;1.67;;;0.70;;
15936;SDS011;9163;48.818;8.976;2023-08-06T06:37:36;2.13;;;0.70;;
15936;SDS011;9163;48.818;8.976;2023-08-06T06:40:04;2.50;;;0.73;;
15936;SDS011;9163;48.818;8.976;2023-08-06T06:42:32;5.03;;;0.90;;
15936;SDS011;9163;48.818;8.976;2023-08-06T06:45:01;2.30;;;0.60;;
15936;SDS011;9163;48.818;8.976;2023-08-06T06:47:28;1.73;;;0.50;;
15936;SDS011;9163;48.818;8.976;2023-08-06T06:49:55;1.40;;;0.43;;
15936;SDS011;9163;48.818;8.976;2023-08-06T06:52:22;2.30;;;0.50;;
15936;SDS011;9163;48.818;8.976;2023-08-06T06:54:49;2.20;;;0.40;;
15936;SDS011;9163;48.818;8.976;2023-08-06T06:57:17;0.57;;;0.40;;
15936;SDS011;9163;48.818;8.976;2023-08-06T06:59:44;1.10;;;0.43;;
15936;SDS011;9163;48.818;8.976;2023-08-06T07:02:13;1.70;;;0.50;;
15936;SDS011;9163;48.818;8.976;2023-08-06T07:04:40;2.00;;;0.40;;
15936;SDS011;9163;48.818;8.976;2023-08-06T07:07:07;0.80;;;0.33;;
15936;SDS011;9163;48.818;8.976;2023-08-06T07:09:34;1.07;;;0.30;;
15936;SDS011;9163;48.818;8.976;2023-08-06T07:12:02;0.33;;;0.30;;
15936;SDS011;9163;48.818;8.976;2023-08-06T07:14:30;0.60;;;0.40;;
15936;SDS011;9163;48.818;8.976;2023-08-06T07:16:57;0.40;;;0.30;;
15936;SDS011;9163;48.818;8.976;2023-08-06T07:19:25;0.50;;;0.30;;
15936;SDS011;9163;48.818;8.976;2023-08-06T07:21:52;0.20;;;0.20;;
15936;SDS011;9163;48.818;8.976;2023-08-06T07:24:21;1.83;;;0.30;;
15936;SDS011;9163;48.818;8.976;2023-08-06T07:26:48;0.57;;;0.30;;
15936;SDS011;9163;48.818;8.976;2023-08-06T07:29:15;1.10;;;0.40;;
15936;SDS011;9163;48.818;8.976;2023-08-06T07:31:46;1.90;;;0.43;;
15936;SDS011;9163;48.818;8.976;2023-08-06T07:34:15;0.77;;;0.23;;
15936;SDS011;9163;48.818;8.976;2023-08-06T07:36:44;0.97;;;0.67;;
15936;SDS011;9163;48.818;8.976;2023-08-06T07:39:12;0.43;;;0.30;;
15936;SDS011;9163;48.818;8.976;2023-08-06T07:41:42;0.63;;;0.30;;
15936;SDS011;9163;48.818;8.976;2023-08-06T07:44:11;0.30;;;0.30;;
15936;SDS011;9163;48.818;8.976;2023-08-06T07:46:38;0.90;;;0.37;;
15936;SDS011;9163;48.818;8.976;2023-08-06T07:49:05;0.30;;;0.30;;
15936;SDS011;9163;48.818;8.976;2023-08-06T07:51:32;0.20;;;0.20;;
15936;SDS011;9163;48.818;8.976;2023-08-06T07:54:01;0.60;;;0.30;;
15936;SDS011;9163;48.818;8.976;2023-08-06T07:56:28;0.20;;;0.20;;
15936;SDS011;9163;48.818;8.976;2023-08-06T07:58:56;0.93;;;0.20;;
15936;SDS011;9163;48.818;8.976;2023-08-06T08:01:23;0.70;;;0.30;;
15936;SDS011;9163;48.818;8.976;2023-08-06T08:03:50;0.10;;;0.10;;
15936;SDS011;9163;48.818;8.976;2023-08-06T08:06:17;0.27;;;0.20;;
15936;SDS011;9163;48.818;8.976;2023-08-06T08:08:45;0.10;;;0.10;;
15936;SDS011;9163;48.818;8.976;2023-08-06T08:11:13;1.17;;;0.10;;
15936;SDS011;9163;48.818;8.976;2023-08-06T08:13:41;1.17;;;0.20;;
15936;SDS011;9163;48.818;8.976;2023-08-06T08:16:09;1.27;;;0.20;;
15936;SDS011;9163;48.818;8.976;2023-08-06T08:18:36;0.37;;;0.20;;
15936;SDS011;9163;48.818;8.976;2023-08-06T08:21:03;0.30;;;0.10;;
15936;SDS011;9163;48.818;8.976;2023-08-06T08:23:31;0.40;;;0.20;;
15936;SDS011;9163;48.818;8.976;2023-08-06T08:25:58;0.33;;;0.10;;
15936;SDS011;9163;48.818;8.976;2023-08-06T08:28:29;0.77;;;0.20;;
15936;SDS011;9163;48.818;8.976;2023-08-06T08:30:56;0.97;;;0.10;;
15936;SDS011;9163;48.818;8.976;2023-08-06T08:33:24;0.37;;;0.10;;
15936;SDS011;9163;48.818;8.976;2023-08-06T08:35:51;0.10;;;0.10;;
15936;SDS011;9163;48.818;8.976;2023-08-06T08:38:18;0.00;;;0.00;;
15936;SDS011;9163;48.818;8.976;2023-08-06T08:40:46;0.20;;;0.20;;
15936;SDS011;9163;48.818;8.976;2023-08-06T08:43:15;0.13;;;0.10;;
15936;SDS011;9163;48.818;8.976;2023-08-06T08:45:44;0.43;;;0.20;;
15936;SDS011;9163;48.818;8.976;2023-08-06T08:48:16;0.20;;;0.10;;
15936;SDS011;9163;48.818;8.976;2023-08-06T08:50:45;0.20;;;0.20;;
15936;SDS011;9163;48.818;8.976;2023-08-06T08:53:15;0.20;;;0.10;;
15936;SDS011;9163;48.818;8.976;2023-08-06T08:55:46;0.20;;;0.10;;
15936;SDS011;9163;48.818;8.976;2023-08-06T08:58:14;0.30;;;0.10;;
15936;SDS011;9163;48.818;8.976;2023-08-06T09:00:42;0.10;;;0.10;;
15936;SDS011;9163;48.818;8.976;2023-08-06T09:03:12;1.03;;;0.07;;
15936;SDS011;9163;48.818;8.976;2023-08-06T09:05:40;0.23;;;0.00;;
15936;SDS011;9163;48.818;8.976;2023-08-06T09:08:12;0.60;;;0.20;;
15936;SDS011;9163;48.818;8.976;2023-08-06T09:10:44;0.10;;;0.10;;
15936;SDS011;9163;48.818;8.976;2023-08-06T09:13:14;0.23;;;0.10;;
15936;SDS011;9163;48.818;8.976;2023-08-06T09:15:42;1.00;;;0.10;;
15936;SDS011;9163;48.818;8.976;2023-08-06T09:18:12;0.40;;;0.10;;
15936;SDS011;9163;48.818;8.976;2023-08-06T09:20:39;0.70;;;0.20;;
15936;SDS011;9163;48.818;8.976;2023-08-06T09:23:07;0.10;;;0.00;;
15936;SDS011;9163;48.818;8.976;2023-08-06T09:25:36;0.10;;;0.10;;
15936;SDS011;9163;48.818;8.976;2023-08-06T09:28:06;1.23;;;0.17;;
15936;SDS011;9163;48.818;8.976;2023-08-06T09:30:33;0.47;;;0.10;;
15936;SDS011;9163;48.818;8.976;2023-08-06T09:33:01;0.67;;;0.03;;
15936;SDS011;9163;48.818;8.976;2023-08-06T09:35:30;0.20;;;0.10;;
15936;SDS011;9163;48.818;8.976;2023-08-06T09:38:05;0.30;;;0.27;;
15936;SDS011;9163;48.818;8.976;2023-08-06T09:40:33;0.10;;;0.10;;
15936;SDS011;9163;48.818;8.976;2023-08-06T09:43:01;0.13;;;0.00;;
15936;SDS011;9163;48.818;8.976;2023-08-06T09:45:29;0.60;;;0.17;;
15936;SDS011;9163;48.818;8.976;2023-08-06T09:47:58;0.10;;;0.10;;
15936;SDS011;9163;48.818;8.976;2023-08-06T09:50:28;0.87;;;0.10;;
15936;SDS011;9163;48.818;8.976;2023-08-06T09:52:58;0.80;;;0.07;;
15936;SDS011;9163;48.818;8.976;2023-08-06T09:55:26;0.00;;;0.00;;
15936;SDS011;9163;48.818;8.976;2023-08-06T09:57:53;0.93;;;0.10;;
15936;SDS011;9163;48.818;8.976;2023-08-06T10:00:21;1.03;;;0.10;;
15936;SDS011;9163;48.818;8.976;2023-08-06T10:02:49;0.00;;;0.00;;
15936;SDS011;9163;48.818;8.976;2023-08-06T10:05:20;0.00;;;0.00;;
15936;SDS011;9163;48.818;8.976;2023-08-06T10:07:49;0.10;;;0.10;;
15936;SDS011;9163;48.818;8.976;2023-08-06T10:10:17;0.30;;;0.17;;
15936;SDS011;9163;48.818;8.976;2023-08-06T10:12:46;0.00;;;0.00;;
15936;SDS011;9163;48.818;8.976;2023-08-06T10:15:16;0.40;;;0.10;;
15936;SDS011;9163;48.818;8.976;2023-08-06T10:17:47;0.20;;;0.07;;
15936;SDS011;9163;48.818;8.976;2023-08-06T10:20:16;0.13;;;0.10;;
15936;SDS011;9163;48.818;8.976;2023-08-06T10:22:46;0.20;;;0.10;;
15936;SDS011;9163;48.818;8.976;2023-08-06T10:25:30;0.00;;;0.00;;
15936;SDS011;9163;48.818;8.976;2023-08-06T10:27:59;0.10;;;0.10;;
15936;SDS011;9163;48.818;8.976;2023-08-06T10:30:27;0.20;;;0.10;;
15936;SDS011;9163;48.818;8.976;2023-08-06T10:32:56;0.40;;;0.13;;
15936;SDS011;9163;48.818;8.976;2023-08-06T10:35:34;0.00;;;0.00;;
15936;SDS011;9163;48.818;8.976;2023-08-06T10:38:04;0.00;;;0.00;;
15936;SDS011;9163;48.818;8.976;2023-08-06T10:40:33;1.73;;;0.10;;
15936;SDS011;9163;48.818;8.976;2023-08-06T10:43:01;0.10;;;0.10;;
15936;SDS011;9163;48.818;8.976;2023-08-06T10:45:29;0.47;;;0.20;;
15936;SDS011;9163;48.818;8.976;2023-08-06T10:47:56;1.13;;;0.20;;
15936;SDS011;9163;48.818;8.976;2023-08-06T10:50:24;1.10;;;0.30;;
15936;SDS011;9163;48.818;8.976;2023-08-06T10:52:52;0.30;;;0.30;;
15936;SDS011;9163;48.818;8.976;2023-08-06T10:55:24;0.30;;;0.30;;
15936;SDS011;9163;48.818;8.976;2023-08-06T10:57:52;0.40;;;0.40;;
15936;SDS011;9163;48.818;8.976;2023-08-06T11:00:20;0.50;;;0.40;;
15936;SDS011;9163;48.818;8.976;2023-08-06T11:02:49;0.40;;;0.33;;
15936;SDS011;9163;48.818;8.976;2023-08-06T11:05:17;0.80;;;0.33;;
15936;SDS011;9163;48.818;8.976;2023-08-06T11:07:44;0.60;;;0.60;;
15936;SDS011;9163;48.818;8.976;2023-08-06T11:10:13;0.80;;;0.37;;
15936;SDS011;9163;48.818;8.976;2023-08-06T11:12:42;1.13;;;0.40;;
15936;SDS011;9163;48.818;8.976;2023-08-06T11:15:10;0.70;;;0.50;;
15936;SDS011;9163;48.818;8.976;2023-08-06T11:17:37;1.23;;;0.63;;
15936;SDS011;9163;48.818;8.976;2023-08-06T11:20:07;0.83;;;0.60;;
15936;SDS011;9163;48.818;8.976;2023-08-06T11:22:35;1.97;;;0.90;;
15936;SDS011;9163;48.818;8.976;2023-08-06T11:25:04;1.63;;;0.80;;
15936;SDS011;9163;48.818;8.976;2023-08-06T11:27:32;2.03;;;0.80;;
15936;SDS011;9163;48.818;8.976;2023-08-06T11:30:01;0.67;;;0.67;;
15936;SDS011;9163;48.818;8.976;2023-08-06T11:32:29;2.00;;;0.90;;
15936;SDS011;9163;48.818;8.976;2023-08-06T11:34:56;1.43;;;0.90;;
15936;SDS011;9163;48.818;8.976;2023-08-06T11:37:23;1.67;;;0.90;;
15936;SDS011;9163;48.818;8.976;2023-08-06T11:39:51;2.77;;;0.87;;
15936;SDS011;9163;48.818;8.976;2023-08-06T11:42:18;2.00;;;0.90;;
15936;SDS011;9163;48.818;8.976;2023-08-06T11:44:46;1.47;;;1.10;;
15936;SDS011;9163;48.818;8.976;2023-08-06T11:47:15;2.60;;;1.17;;
15936;SDS011;9163;48.818;8.976;2023-08-06T11:49:44;1.40;;;1.00;;
15936;SDS011;9163;48.818;8.976;2023-08-06T11:52:14;1.97;;;1.37;;
15936;SDS011;9163;48.818;8.976;2023-08-06T11:54:44;1.97;;;1.10;;
15936;SDS011;9163;48.818;8.976;2023-08-06T11:57:13;1.80;;;1.40;;
15936;SDS011;9163;48.818;8.976;2023-08-06T11:59:41;2.53;;;1.30;;
15936;SDS011;9163;48.818;8.976;2023-08-06T12:02:09;2.20;;;1.70;;
15936;SDS011;9163;48.818;8.976;2023-08-06T12:07:29;3.33;;;2.07;;
15936;SDS011;9163;48.818;8.976;2023-08-06T12:09:57;2.10;;;1.50;;
15936;SDS011;9163;48.818;8.976;2023-08-06T12:12:25;1.87;;;1.50;;
15936;SDS011;9163;48.818;8.976;2023-08-06T12:14:52;3.20;;;1.90;;
15936;SDS011;9163;48.818;8.976;2023-08-06T12:17:19;3.30;;;1.50;;
15936;SDS011;9163;48.818;8.976;2023-08-06T12:19:46;3.00;;;1.57;;
15936;SDS011;9163;48.818;8.976;2023-08-06T12:22:15;3.60;;;1.60;;
15936;SDS011;9163;48.818;8.976;2023-08-06T12:24:43;3.40;;;1.60;;
15936;SDS011;9163;48.818;8.976;2023-08-06T12:27:11;3.53;;;1.50;;
15936;SDS011;9163;48.818;8.976;2023-08-06T12:29:40;3.50;;;1.30;;
15936;SDS011;9163;48.818;8.976;2023-08-06T12:32:08;1.43;;;1.20;;
15936;SDS011;9163;48.818;8.976;2023-08-06T12:34:35;3.17;;;1.43;;
15936;SDS011;9163;48.818;8.976;2023-08-06T12:37:03;2.07;;;1.00;;
15936;SDS011;9163;48.818;8.976;2023-08-06T12:39:32;1.43;;;0.93;;
15936;SDS011;9163;48.818;8.976;2023-08-06T12:42:00;2.60;;;0.80;;
15936;SDS011;9163;48.818;8.976;2023-08-06T12:44:27;2.37;;;0.73;;
15936;SDS011;9163;48.818;8.976;2023-08-06T12:46:54;0.90;;;0.60;;
15936;SDS011;9163;48.818;8.976;2023-08-06T12:49:22;2.20;;;0.70;;
15936;SDS011;9163;48.818;8.976;2023-08-06T12:51:50;1.60;;;0.90;;
15936;SDS011;9163;48.818;8.976;2023-08-06T12:54:17;2.70;;;1.00;;
15936;SDS011;9163;48.818;8.976;2023-08-06T12:56:47;2.00;;;1.03;;
15936;SDS011;9163;48.818;8.976;2023-08-06T12:59:16;1.67;;;0.90;;
15936;SDS011;9163;48.818;8.976;2023-08-06T13:01:43;1.00;;;0.70;;
15936;SDS011;9163;48.818;8.976;2023-08-06T13:04:11;2.70;;;1.00;;
15936;SDS011;9163;48.818;8.976;2023-08-06T13:06:38;1.90;;;0.90;;
15936;SDS011;9163;48.818;8.976;2023-08-06T13:09:05;1.40;;;0.80;;
15936;SDS011;9163;48.818;8.976;2023-08-06T13:11:33;0.77;;;0.60;;
15936;SDS011;9163;48.818;8.976;2023-08-06T13:14:05;0.93;;;0.50;;
15936;SDS011;9163;48.818;8.976;2023-08-06T13:16:34;1.30;;;0.70;;
15936;SDS011;9163;48.818;8.976;2023-08-06T13:19:02;2.00;;;0.80;;
15936;SDS011;9163;48.818;8.976;2023-08-06T13:21:31;1.47;;;0.70;;
15936;SDS011;9163;48.818;8.976;2023-08-06T13:23:59;0.90;;;0.67;;
15936;SDS011;9163;48.818;8.976;2023-08-06T13:26:27;1.00;;;0.63;;
15936;SDS011;9163;48.818;8.976;2023-08-06T13:28:57;0.60;;;0.50;;
15936;SDS011;9163;48.818;8.976;2023-08-06T13:31:26;1.67;;;0.60;;
15936;SDS011;9163;48.818;8.976;2023-08-06T13:33:54;3.37;;;0.70;;
15936;SDS011;9163;48.818;8.976;2023-08-06T13:36:23;0.80;;;0.60;;
15936;SDS011;9163;48.818;8.976;2023-08-06T13:38:50;0.77;;;0.50;;
15936;SDS011;9163;48.818;8.976;2023-08-06T13:41:18;0.97;;;0.40;;
15936;SDS011;9163;48.818;8.976;2023-08-06T13:43:45;0.87;;;0.50;;
15936;SDS011;9163;48.818;8.976;2023-08-06T13:46:13;2.33;;;0.60;;
15936;SDS011;9163;48.818;8.976;2023-08-06T13:48:43;0.60;;;0.40;;
15936;SDS011;9163;48.818;8.976;2023-08-06T13:51:11;1.17;;;0.60;;
15936;SDS011;9163;48.818;8.976;2023-08-06T13:53:39;1.57;;;0.70;;
15936;SDS011;9163;48.818;8.976;2023-08-06T13:56:08;0.60;;;0.50;;
15936;SDS011;9163;48.818;8.976;2023-08-06T13:58:36;0.97;;;0.60;;
15936;SDS011;9163;48.818;8.976;2023-08-06T14:01:04;1.47;;;0.60;;
15936;SDS011;9163;48.818;8.976;2023-08-06T14:03:31;1.00;;;0.50;;
15936;SDS011;9163;48.818;8.976;2023-08-06T14:06:00;0.97;;;0.50;;
15936;SDS011;9163;48.818;8.976;2023-08-06T14:08:27;1.17;;;0.60;;
15936;SDS011;9163;48.818;8.976;2023-08-06T14:10:54;0.87;;;0.50;;
15936;SDS011;9163;48.818;8.976;2023-08-06T14:13:22;1.60;;;0.67;;
15936;SDS011;9163;48.818;8.976;2023-08-06T14:15:48;1.50;;;0.40;;
15936;SDS011;9163;48.818;8.976;2023-08-06T14:18:15;0.93;;;0.60;;
15936;SDS011;9163;48.818;8.976;2023-08-06T14:20:43;0.73;;;0.60;;
15936;SDS011;9163;48.818;8.976;2023-08-06T14:23:12;0.60;;;0.60;;
15936;SDS011;9163;48.818;8.976;2023-08-06T14:25:39;0.80;;;0.50;;
15936;SDS011;9163;48.818;8.976;2023-08-06T14:28:06;2.00;;;0.70;;
15936;SDS011;9163;48.818;8.976;2023-08-06T14:30:34;1.53;;;0.67;;
15936;SDS011;9163;48.818;8.976;2023-08-06T14:33:01;2.03;;;0.77;;
15936;SDS011;9163;48.818;8.976;2023-08-06T14:35:29;1.50;;;0.70;;
15936;SDS011;9163;48.818;8.976;2023-08-06T14:37:56;0.93;;;0.60;;
15936;SDS011;9163;48.818;8.976;2023-08-06T14:40:24;1.93;;;0.67;;
15936;SDS011;9163;48.818;8.976;2023-08-06T14:42:54;2.73;;;0.70;;
15936;SDS011;9163;48.818;8.976;2023-08-06T14:45:21;1.13;;;0.83;;
15936;SDS011;9163;48.818;8.976;2023-08-06T14:47:48;1.63;;;0.60;;
15936;SDS011;9163;48.818;8.976;2023-08-06T14:50:15;1.27;;;0.80;;
15936;SDS011;9163;48.818;8.976;2023-08-06T14:52:43;1.50;;;0.73;;
15936;SDS011;9163;48.818;8.976;2023-08-06T14:55:10;1.00;;;0.60;;
15936;SDS011;9163;48.818;8.976;2023-08-06T14:57:38;1.43;;;0.80;;
15936;SDS011;9163;48.818;8.976;2023-08-06T15:00:06;1.40;;;0.60;;
15936;SDS011;9163;48.818;8.976;2023-08-06T15:02:36;0.80;;;0.80;;
15936;SDS011;9163;48.818;8.976;2023-08-06T15:05:03;2.00;;;0.70;;
15936;SDS011;9163;48.818;8.976;2023-08-06T15:07:31;1.17;;;0.70;;